Time;durP1;ratioP1;P1;durP2;ratioP2;P2;SDS_P1;SDS_P2;PMS_P1;PMS_P2;Temp;Humidity;BMP_temperature;BMP_pressure;BME280_temperature;BME280_humidity;BME280_pressure;Samples;Min_cycle;Max_cycle;Signal;HPM_P1;HPM_P2
2021/07/15 00:02:11;;;;;;;;;13.00;13.00;;;;;-149.00;100.00;66333.84;5100198;27;45225;-78
2021/07/15 00:04:37;;;;;;;;;13.00;13.00;;;;;-149.00;100.00;66333.84;5100091;27;45440;-78
2021/07/15 00:07:02;;;;;;;;;16.00;16.00;;;;;-149.00;100.00;66333.84;5100235;27;46211;-78
2021/07/15 00:09:28;;;;;;;;;13.00;13.00;;;;;-149.00;100.00;66333.84;5100044;27;45204;-78
2021/07/15 00:11:53;;;;;;;;;14.33;12.67;;;;;-149.00;100.00;66333.84;5100248;27;45211;-77
2021/07/15 00:14:20;;;;;;;;;15.00;14.67;;;;;-149.00;100.00;66333.84;5100025;27;45238;-78
2021/07/15 00:16:54;;;;;;;;;14.33;14.00;;;;;-149.00;100.00;66333.84;5099727;27;48295;-77
2021/07/15 00:19:26;;;;;;;;;13.00;13.00;;;;;-149.00;100.00;66333.84;5100035;27;45258;-77
2021/07/15 00:21:52;;;;;;;;;13.67;13.67;;;;;-149.00;100.00;66333.84;5099570;27;45481;-78
2021/07/15 00:24:18;;;;;;;;;13.00;11.00;;;;;-149.00;100.00;66333.84;5099768;27;45417;-78
2021/07/15 00:26:45;;;;;;;;;13.33;13.33;;;;;-149.00;100.00;66333.84;5081415;27;46993;-77
2021/07/15 00:29:10;;;;;;;;;14.33;12.00;;;;;-149.00;100.00;66333.84;5081573;27;45262;-78
2021/07/15 00:31:36;;;;;;;;;14.00;13.00;;;;;-149.00;100.00;66333.84;5099893;27;45228;-78
2021/07/15 00:34:02;;;;;;;;;13.33;13.33;;;;;-149.00;100.00;66333.84;5103643;27;45244;-79
2021/07/15 00:36:27;;;;;;;;;11.67;11.33;;;;;-149.00;100.00;66333.84;5103210;27;46537;-79
2021/07/15 00:38:53;;;;;;;;;14.00;12.67;;;;;-149.00;100.00;66333.84;5103525;27;45304;-78
2021/07/15 00:41:18;;;;;;;;;13.00;13.00;;;;;-149.00;100.00;66333.84;5085135;27;45395;-78
2021/07/15 00:43:44;;;;;;;;;15.33;14.33;;;;;-149.00;100.00;66333.84;5103411;27;45435;-79
2021/07/15 00:46:09;;;;;;;;;14.00;12.00;;;;;-149.00;100.00;66333.84;5102986;27;46012;-78
2021/07/15 00:48:35;;;;;;;;;13.33;13.33;;;;;-149.00;100.00;66333.84;5103298;27;45276;-78
2021/07/15 00:51:00;;;;;;;;;11.00;10.67;;;;;-149.00;100.00;66333.84;5103434;27;45269;-78
2021/07/15 00:53:26;;;;;;;;;12.33;10.33;;;;;-149.00;100.00;66333.84;5103106;27;45581;-78
2021/07/15 00:55:51;;;;;;;;;10.33;10.33;;;;;-149.00;100.00;66333.84;5084783;27;48342;-78
2021/07/15 00:58:17;;;;;;;;;12.00;11.33;;;;;-149.00;100.00;66333.84;5103093;27;45330;-78
2021/07/15 01:00:46;;;;;;;;;14.00;14.00;;;;;-149.00;100.00;66333.84;5102882;27;45241;-77
2021/07/15 01:03:13;;;;;;;;;13.00;12.33;;;;;-149.00;100.00;66333.84;5084603;27;46158;-78
2021/07/15 01:05:41;;;;;;;;;11.33;10.33;;;;;-149.00;100.00;66333.84;5102944;27;46183;-78
2021/07/15 01:08:09;;;;;;;;;10.00;10.00;;;;;-149.00;100.00;66333.84;5102993;27;45309;-79
2021/07/15 01:10:40;;;;;;;;;14.67;14.00;;;;;-149.00;100.00;66333.84;5103010;27;45234;-78
2021/07/15 01:13:29;;;;;;;;;13.67;13.67;;;;;-149.00;100.00;66333.84;5084202;27;46235;-78
2021/07/15 01:16:08;;;;;;;;;13.67;13.67;;;;;-149.00;100.00;66333.84;5083925;27;47127;-78
2021/07/15 01:18:59;;;;;;;;;13.67;12.67;;;;;-149.00;100.00;66333.84;5102981;27;45361;-78
2021/07/15 01:21:49;;;;;;;;;16.67;13.00;;;;;-149.00;100.00;66333.84;5063730;27;45288;-78
2021/07/15 01:25:04;;;;;;;;;14.00;13.67;;;;;-149.00;100.00;66333.84;5102550;27;45539;-79
2021/07/15 01:28:03;;;;;;;;;15.00;13.67;;;;;-149.00;100.00;66333.84;5069828;27;47410;-78
2021/07/15 01:30:36;;;;;;;;;13.00;12.33;;;;;-149.00;100.00;66333.84;5094082;27;45477;-78
2021/07/15 01:33:22;;;;;;;;;13.00;13.00;;;;;-149.00;100.00;66333.84;5102344;27;45345;-78
2021/07/15 01:35:56;;;;;;;;;16.00;14.67;;;;;-149.00;100.00;66333.84;5094744;27;45167;-78
2021/07/15 01:38:26;;;;;;;;;14.00;14.00;;;;;-149.00;100.00;66333.84;5102208;27;46383;-77
2021/07/15 01:41:03;;;;;;;;;16.67;16.67;;;;;-149.00;100.00;66333.84;5102350;27;45447;-78
2021/07/15 01:43:38;;;;;;;;;15.33;14.00;;;;;-149.00;100.00;66333.84;5082500;27;45338;-78
2021/07/15 01:46:05;;;;;;;;;17.67;16.33;;;;;-149.00;100.00;66333.84;5102177;27;45311;-79
2021/07/15 01:48:31;;;;;;;;;10.33;10.33;;;;;-149.00;100.00;66333.84;5102052;27;45325;-78
2021/07/15 01:50:58;;;;;;;;;17.67;15.67;;;;;-149.00;100.00;66333.84;5102232;27;45361;-78
2021/07/15 01:53:24;;;;;;;;;14.67;14.67;;;;;-149.00;100.00;66333.84;5102184;27;45313;-78
2021/07/15 01:55:51;;;;;;;;;14.67;14.00;;;;;-149.00;100.00;66333.84;5102110;27;45200;-78
2021/07/15 01:58:17;;;;;;;;;16.00;16.00;;;;;-149.00;100.00;66333.84;5102001;27;46146;-78
2021/07/15 02:00:44;;;;;;;;;16.00;16.00;;;;;-149.00;100.00;66333.84;5101778;27;45327;-78
2021/07/15 02:03:11;;;;;;;;;19.00;17.00;;;;;-149.00;100.00;66333.84;5102125;27;45288;-78
2021/07/15 02:05:39;;;;;;;;;15.00;14.00;;;;;-149.00;100.00;66333.84;5101992;27;45313;-79
2021/07/15 02:08:06;;;;;;;;;16.00;16.00;;;;;-149.00;100.00;66333.84;5083225;27;46139;-78
2021/07/15 02:10:33;;;;;;;;;16.67;16.67;;;;;-149.00;100.00;66333.84;5101842;27;45227;-79
2021/07/15 02:12:59;;;;;;;;;17.00;17.00;;;;;-149.00;100.00;66333.84;5101951;27;45292;-78
2021/07/15 02:15:27;;;;;;;;;12.33;12.33;;;;;-149.00;100.00;66333.84;5101794;27;45295;-77
2021/07/15 02:17:53;;;;;;;;;19.00;19.00;;;;;-149.00;100.00;66333.84;5101684;27;45479;-78
2021/07/15 02:20:20;;;;;;;;;15.67;15.00;;;;;-149.00;100.00;66333.84;5083416;27;45256;-77
2021/07/15 02:22:46;;;;;;;;;13.00;13.00;;;;;-149.00;100.00;66333.84;5101197;27;45235;-79
2021/07/15 02:25:13;;;;;;;;;17.33;15.00;;;;;-149.00;100.00;66333.84;5101496;27;45485;-78
2021/07/15 02:27:42;;;;;;;;;13.67;13.00;;;;;-149.00;100.00;66333.84;5083195;27;47544;-78
2021/07/15 02:30:10;;;;;;;;;15.00;15.00;;;;;-149.00;100.00;66333.84;5101183;27;45252;-78
2021/07/15 02:32:37;;;;;;;;;17.00;14.33;;;;;-149.00;100.00;66333.84;5101383;27;45279;-77
2021/07/15 02:35:10;;;;;;;;;13.67;13.67;;;;;-149.00;100.00;66333.84;5101138;27;45226;-78
2021/07/15 02:37:39;;;;;;;;;13.00;13.00;;;;;-149.00;100.00;66333.84;5082783;27;47199;-78
2021/07/15 02:40:17;;;;;;;;;14.67;14.00;;;;;-149.00;100.00;66333.84;5101331;27;45399;-78
2021/07/15 02:42:44;;;;;;;;;15.00;13.67;;;;;-149.00;100.00;66333.84;5101507;27;45275;-78
2021/07/15 02:45:17;;;;;;;;;14.00;13.00;;;;;-149.00;100.00;66333.84;5101238;27;45403;-78
2021/07/15 02:47:44;;;;;;;;;15.67;14.00;;;;;-149.00;100.00;66333.84;5101134;27;46099;-78
2021/07/15 02:50:13;;;;;;;;;13.00;13.00;;;;;-149.00;100.00;66333.84;5101152;27;45232;-78
2021/07/15 02:52:38;;;;;;;;;15.00;14.33;;;;;-149.00;100.00;66333.84;5082858;27;45344;-78
2021/07/15 02:55:05;;;;;;;;;14.00;13.67;;;;;-149.00;100.00;66333.84;5100607;27;45313;-78
2021/07/15 02:57:44;;;;;;;;;14.00;14.00;;;;;-149.00;100.00;66333.84;5101053;27;45324;-78
2021/07/15 03:00:13;;;;;;;;;13.00;12.67;;;;;-149.00;100.00;66333.84;5101104;27;45469;-78
2021/07/15 03:03:01;;;;;;;;;16.00;13.33;;;;;-149.00;100.00;66333.84;5082374;27;45414;-78
2021/07/15 03:05:43;;;;;;;;;17.33;15.33;;;;;-149.00;100.00;66333.84;5082555;27;46194;-78
2021/07/15 03:08:12;;;;;;;;;16.00;15.00;;;;;-149.00;100.00;66333.84;5100834;27;46265;-78
2021/07/15 03:10:39;;;;;;;;;16.67;16.33;;;;;-149.00;100.00;66333.84;5101011;27;45192;-78
2021/07/15 03:13:10;;;;;;;;;18.00;17.67;;;;;-149.00;100.00;66333.84;5100971;27;45229;-77
2021/07/15 03:15:38;;;;;;;;;13.00;13.00;;;;;-149.00;100.00;66333.84;5082303;27;46249;-78
2021/07/15 03:18:07;;;;;;;;;17.00;16.00;;;;;-149.00;100.00;66333.84;5100662;27;46447;-78
2021/07/15 03:20:36;;;;;;;;;15.00;14.67;;;;;-149.00;100.00;66333.84;5100893;27;45213;-78
2021/07/15 03:23:09;;;;;;;;;16.67;16.67;;;;;-149.00;100.00;66333.84;5100437;27;45377;-78
2021/07/15 03:25:35;;;;;;;;;17.67;16.67;;;;;-149.00;100.00;66333.84;5100713;27;45346;-79
2021/07/15 03:28:05;;;;;;;;;16.67;15.67;;;;;-149.00;100.00;66333.84;5100621;27;45262;-78
2021/07/15 03:30:32;;;;;;;;;16.67;16.67;;;;;-149.00;100.00;66333.84;5092063;27;45438;-78
2021/07/15 03:33:00;;;;;;;;;15.00;15.00;;;;;-149.00;100.00;66333.84;5100511;27;45226;-79
2021/07/15 03:35:26;;;;;;;;;17.33;16.00;;;;;-149.00;100.00;66333.84;5082154;27;45523;-79
2021/07/15 03:37:52;;;;;;;;;18.00;14.67;;;;;-149.00;100.00;66333.84;5100326;27;45330;-77
2021/07/15 03:40:21;;;;;;;;;17.33;16.33;;;;;-149.00;100.00;66333.84;5100426;27;45334;-78
2021/07/15 03:42:47;;;;;;;;;16.33;15.67;;;;;-149.00;100.00;66333.84;5100544;27;45236;-79
2021/07/15 03:45:18;;;;;;;;;19.67;19.33;;;;;-149.00;100.00;66333.84;5100233;27;45328;-78
2021/07/15 03:47:51;;;;;;;;;16.33;16.00;;;;;-149.00;100.00;66333.84;5099987;27;45215;-78
2021/07/15 03:50:23;;;;;;;;;17.67;17.33;;;;;-149.00;100.00;66333.84;5081703;27;45336;-78
2021/07/15 03:52:51;;;;;;;;;14.67;14.00;;;;;-149.00;100.00;66333.84;5081839;27;45272;-78
2021/07/15 03:55:22;;;;;;;;;17.67;16.00;;;;;-149.00;100.00;66333.84;5081734;27;47123;-78
2021/07/15 03:57:49;;;;;;;;;16.67;16.67;;;;;-149.00;100.00;66333.84;5100248;27;45886;-78
2021/07/15 04:00:15;;;;;;;;;15.00;13.67;;;;;-149.00;100.00;66333.84;5099984;27;45372;-78
2021/07/15 04:02:42;;;;;;;;;14.00;14.00;;;;;-149.00;100.00;66333.84;5099868;27;45312;-78
2021/07/15 04:05:08;;;;;;;;;14.33;14.33;;;;;-149.00;100.00;66333.84;5100093;27;45340;-78
2021/07/15 04:07:34;;;;;;;;;17.67;15.00;;;;;-149.00;100.00;66333.84;5101801;27;46307;-78
2021/07/15 04:10:01;;;;;;;;;19.33;16.67;;;;;-149.00;100.00;66333.84;5103677;27;45226;-78
2021/07/15 04:12:29;;;;;;;;;16.33;16.00;;;;;-149.00;100.00;66333.84;5085555;27;45343;-78
2021/07/15 04:15:00;;;;;;;;;16.00;15.33;;;;;-149.00;100.00;66333.84;5103718;27;45384;-78
2021/07/15 04:17:31;;;;;;;;;17.67;16.33;;;;;-149.00;100.00;66333.84;5103291;27;46445;-78
2021/07/15 04:19:59;;;;;;;;;19.33;17.33;;;;;-149.00;100.00;66333.84;5103536;27;45310;-78
2021/07/15 04:22:28;;;;;;;;;16.67;16.00;;;;;-149.00;100.00;66333.84;5103157;27;45228;-78
2021/07/15 04:24:57;;;;;;;;;16.33;13.33;;;;;-149.00;100.00;66333.84;5085042;27;46552;-79
2021/07/15 04:27:27;;;;;;;;;17.33;16.33;;;;;-149.00;100.00;66333.84;5103453;27;46314;-79
2021/07/15 04:29:59;;;;;;;;;16.00;14.33;;;;;-149.00;100.00;66333.84;5080171;28;46258;-77
2021/07/15 04:32:28;;;;;;;;;18.67;17.33;;;;;-149.00;100.00;66333.84;5101133;27;45223;-78
2021/07/15 04:34:56;;;;;;;;;17.00;17.00;;;;;-149.00;100.00;66333.84;5103124;27;46975;-78
2021/07/15 04:37:24;;;;;;;;;19.33;18.67;;;;;-149.00;100.00;66333.84;5103014;27;45362;-78
2021/07/15 04:39:50;;;;;;;;;16.00;16.00;;;;;-149.00;100.00;66333.84;5103441;27;45291;-78
2021/07/15 04:42:17;;;;;;;;;19.67;16.00;;;;;-149.00;100.00;66333.84;5103388;27;45265;-78
2021/07/15 04:44:46;;;;;;;;;15.33;15.33;;;;;-149.00;100.00;66333.84;5103903;27;45245;-79
2021/07/15 04:47:14;;;;;;;;;18.67;17.33;;;;;-149.00;100.00;66333.84;5084601;27;45903;-79
2021/07/15 04:49:40;;;;;;;;;19.33;18.33;;;;;-149.00;100.00;66333.84;5102992;27;45278;-78
2021/07/15 04:52:08;;;;;;;;;15.33;14.33;;;;;-149.00;100.00;66333.84;5103205;27;45259;-78
2021/07/15 04:54:36;;;;;;;;;18.33;17.33;;;;;-149.00;100.00;66333.84;5103024;27;45465;-78
2021/07/15 04:57:02;;;;;;;;;18.00;16.00;;;;;-149.00;100.00;66333.84;5102874;27;45323;-77
2021/07/15 04:59:28;;;;;;;;;16.67;16.67;;;;;-149.00;100.00;66333.84;5084806;27;45257;-78
2021/07/15 05:01:54;;;;;;;;;17.00;16.33;;;;;-149.00;100.00;66333.84;5084600;27;45193;-79
2021/07/15 05:04:20;;;;;;;;;17.67;16.00;;;;;-149.00;100.00;66333.84;5103164;27;45207;-78
2021/07/15 05:06:46;;;;;;;;;16.33;16.33;;;;;-149.00;100.00;66333.84;5103012;27;47033;-78
2021/07/15 05:09:11;;;;;;;;;17.33;16.33;;;;;-149.00;100.00;66333.84;5102877;27;45218;-79
2021/07/15 05:11:37;;;;;;;;;20.67;19.33;;;;;-149.00;100.00;66333.84;5103129;27;45982;-78
2021/07/15 05:14:03;;;;;;;;;15.00;14.33;;;;;-149.00;100.00;66333.84;5084493;27;46072;-78
2021/07/15 05:16:29;;;;;;;;;18.00;16.33;;;;;-149.00;100.00;66333.84;5102631;27;46477;-79
2021/07/15 05:18:54;;;;;;;;;16.33;16.33;;;;;-149.00;100.00;66333.84;5102439;27;45353;-79
2021/07/15 05:21:19;;;;;;;;;16.00;16.00;;;;;-149.00;100.00;66333.84;5102420;27;46310;-78
2021/07/15 05:23:45;;;;;;;;;16.33;16.33;;;;;-149.00;100.00;66333.84;5096992;27;45309;-78
2021/07/15 05:26:10;;;;;;;;;21.00;17.00;;;;;-149.00;100.00;66333.84;5102612;27;45375;-78
2021/07/15 05:28:35;;;;;;;;;20.33;18.67;;;;;-149.00;100.00;66333.84;5102660;27;45344;-78
2021/07/15 05:31:01;;;;;;;;;19.00;19.00;;;;;-149.00;100.00;66333.84;5102377;27;45326;-78
2021/07/15 05:33:26;;;;;;;;;17.00;16.33;;;;;-149.00;100.00;66333.84;5102272;27;45532;-78
2021/07/15 05:35:52;;;;;;;;;16.33;16.33;;;;;-149.00;100.00;66333.84;5102456;27;45282;-78
2021/07/15 05:38:17;;;;;;;;;20.67;19.67;;;;;-149.00;100.00;66333.84;5102350;27;45356;-78
2021/07/15 05:40:42;;;;;;;;;20.00;19.00;;;;;-149.00;100.00;66333.84;5102644;27;45460;-78
2021/07/15 05:43:08;;;;;;;;;20.00;20.00;;;;;-149.00;100.00;66333.84;5083962;27;47258;-79
2021/07/15 05:45:33;;;;;;;;;16.00;16.00;;;;;-149.00;100.00;66333.84;5101973;27;46214;-81
2021/07/15 05:47:59;;;;;;;;;18.67;18.67;;;;;-149.00;100.00;66333.84;5100484;27;45437;-78
2021/07/15 05:50:24;;;;;;;;;18.00;18.00;;;;;-149.00;100.00;66333.84;5099413;27;45226;-78
2021/07/15 05:52:50;;;;;;;;;19.00;15.67;;;;;-149.00;100.00;66333.84;5102221;27;45287;-78
2021/07/15 05:55:15;;;;;;;;;13.67;13.33;;;;;-149.00;100.00;66333.84;5102317;27;45252;-79
2021/07/15 05:57:41;;;;;;;;;19.00;18.00;;;;;-149.00;100.00;66333.84;5083708;27;45191;-79
2021/07/15 06:00:09;;;;;;;;;15.33;14.33;;;;;-149.00;100.00;66333.84;5102221;27;45146;-78
2021/07/15 06:02:34;;;;;;;;;16.33;15.00;;;;;-149.00;100.00;66333.84;5101662;27;45394;-79
2021/07/15 06:05:00;;;;;;;;;16.67;16.00;;;;;-149.00;100.00;66333.84;5101400;27;45346;-79
2021/07/15 06:07:26;;;;;;;;;15.00;15.00;;;;;-149.00;100.00;66333.84;5101938;27;45349;-77
2021/07/15 06:09:52;;;;;;;;;13.00;13.00;;;;;-149.00;100.00;66333.84;5083767;27;45356;-79
2021/07/15 06:12:17;;;;;;;;;16.33;13.33;;;;;-149.00;100.00;66333.84;5101940;27;45335;-78
2021/07/15 06:14:43;;;;;;;;;13.67;13.00;;;;;-149.00;100.00;66333.84;5101842;27;45243;-78
2021/07/15 06:17:08;;;;;;;;;15.67;13.00;;;;;-149.00;100.00;66333.84;5101854;27;45202;-78
2021/07/15 06:19:33;;;;;;;;;16.00;14.67;;;;;-149.00;100.00;66333.84;5101963;27;45535;-79
2021/07/15 06:21:59;;;;;;;;;18.00;13.67;;;;;-149.00;100.00;66333.84;5101409;27;45173;-79
2021/07/15 06:24:24;;;;;;;;;14.33;14.33;;;;;-149.00;100.00;66333.84;5101471;27;46458;-79
2021/07/15 06:26:50;;;;;;;;;16.33;14.67;;;;;-149.00;100.00;66333.84;5101790;27;45247;-78
2021/07/15 06:29:16;;;;;;;;;13.33;13.33;;;;;-149.00;100.00;66333.84;5100933;27;45259;-79
2021/07/15 06:31:42;;;;;;;;;14.00;14.00;;;;;-149.00;100.00;66333.84;5101197;27;45240;-79
2021/07/15 06:34:07;;;;;;;;;13.00;13.00;;;;;-149.00;100.00;66333.84;5082808;27;48134;-78
2021/07/15 06:36:33;;;;;;;;;15.33;15.00;;;;;-149.00;100.00;66333.84;5083050;27;45361;-79
2021/07/15 06:39:00;;;;;;;;;16.67;14.00;;;;;-149.00;100.00;66333.84;5101744;27;45346;-79
2021/07/15 06:41:26;;;;;;;;;11.33;11.33;;;;;-149.00;100.00;66333.84;5101283;27;45377;-79
2021/07/15 06:43:51;;;;;;;;;15.67;15.67;;;;;-149.00;100.00;66333.84;5101453;27;46201;-78
2021/07/15 06:46:17;;;;;;;;;15.00;15.00;;;;;-149.00;100.00;66333.84;5082320;27;45686;-78
2021/07/15 06:48:43;;;;;;;;;11.67;11.67;;;;;-149.00;100.00;66333.84;5083512;27;45304;-79
2021/07/15 06:51:09;;;;;;;;;13.33;13.33;;;;;-149.00;100.00;66333.84;5101237;27;45422;-78
2021/07/15 06:53:35;;;;;;;;;13.33;13.00;;;;;-149.00;100.00;66333.84;5101268;27;45269;-77
2021/07/15 06:56:01;;;;;;;;;14.00;13.00;;;;;-149.00;100.00;66333.84;5101202;27;45220;-78
2021/07/15 06:58:28;;;;;;;;;13.00;13.00;;;;;-149.00;100.00;66333.84;5101162;27;45202;-79
2021/07/15 07:00:57;;;;;;;;;15.00;15.00;;;;;-149.00;100.00;66333.84;5100890;27;45337;-79
2021/07/15 07:03:23;;;;;;;;;8.00;8.00;;;;;-149.00;100.00;66333.84;5100316;27;45412;-80
2021/07/15 07:05:53;;;;;;;;;13.00;11.00;;;;;-149.00;100.00;66333.84;5101073;27;45172;-79
2021/07/15 07:08:18;;;;;;;;;13.00;13.00;;;;;-149.00;100.00;66333.84;5101084;27;45541;-78
2021/07/15 07:10:44;;;;;;;;;12.67;11.67;;;;;-149.00;100.00;66333.84;5099381;27;47218;-79
2021/07/15 07:13:09;;;;;;;;;13.00;12.33;;;;;-149.00;100.00;66333.84;5082072;27;47123;-79
2021/07/15 07:15:35;;;;;;;;;13.00;13.00;;;;;-149.00;100.00;66333.84;5080845;27;46124;-78
2021/07/15 07:18:00;;;;;;;;;16.67;15.00;;;;;-149.00;100.00;66333.84;5100963;27;45687;-78
2021/07/15 07:20:25;;;;;;;;;10.00;10.00;;;;;-149.00;100.00;66333.84;5100855;27;45284;-78
2021/07/15 07:22:51;;;;;;;;;12.00;12.00;;;;;-149.00;100.00;66333.84;5100179;27;45276;-78
2021/07/15 07:25:17;;;;;;;;;12.67;12.67;;;;;-149.00;100.00;66333.84;5100676;27;45337;-79
2021/07/15 07:27:43;;;;;;;;;12.67;12.33;;;;;-149.00;100.00;66333.84;5078706;28;45421;-78
2021/07/15 07:30:11;;;;;;;;;11.33;11.33;;;;;-149.00;100.00;66333.84;5087274;27;45184;-79
2021/07/15 07:32:37;;;;;;;;;13.33;12.33;;;;;-149.00;100.00;66333.84;5098704;27;45369;-79
2021/07/15 07:35:06;;;;;;;;;14.67;13.67;;;;;-149.00;100.00;66333.84;5082052;27;45877;-77
2021/07/15 07:37:32;;;;;;;;;13.67;12.67;;;;;-149.00;100.00;66333.84;5101741;27;45323;-78
2021/07/15 07:39:57;;;;;;;;;10.67;10.67;;;;;-149.00;100.00;66333.84;5081954;27;47258;-79
2021/07/15 07:42:23;;;;;;;;;13.00;12.00;;;;;-149.00;100.00;66333.84;5100403;27;45330;-79
2021/07/15 07:44:49;;;;;;;;;10.67;10.33;;;;;-149.00;100.00;66333.84;5099102;27;45255;-78
2021/07/15 07:47:14;;;;;;;;;11.67;11.67;;;;;-149.00;100.00;66333.84;5100545;27;45299;-78
2021/07/15 07:49:39;;;;;;;;;11.00;10.67;;;;;-149.00;100.00;66333.84;5100550;27;45297;-81
2021/07/15 07:52:06;;;;;;;;;9.00;9.00;;;;;-149.00;100.00;66333.84;5082191;27;47191;-78
2021/07/15 07:54:31;;;;;;;;;11.00;11.00;;;;;-149.00;100.00;66333.84;5100064;27;45380;-79
2021/07/15 07:56:57;;;;;;;;;13.00;10.67;;;;;-149.00;100.00;66333.84;5092846;27;45357;-79
2021/07/15 07:59:22;;;;;;;;;10.00;10.00;;;;;-149.00;100.00;66333.84;5099383;27;45583;-81
2021/07/15 08:01:48;;;;;;;;;12.00;10.00;;;;;-149.00;100.00;66333.84;5098847;27;46033;-79
2021/07/15 08:04:13;;;;;;;;;12.67;12.00;;;;;-149.00;100.00;66333.84;5100280;27;45381;-80
2021/07/15 08:06:41;;;;;;;;;11.33;10.00;;;;;-149.00;100.00;66333.84;5097377;27;45710;-79
2021/07/15 08:09:09;;;;;;;;;12.33;11.33;;;;;-149.00;100.00;66333.84;5099604;27;45374;-79
2021/07/15 08:11:35;;;;;;;;;11.00;10.00;;;;;-149.00;100.00;66333.84;5100056;27;46465;-79
2021/07/15 08:14:00;;;;;;;;;14.00;14.00;;;;;-149.00;100.00;66333.84;5099453;27;45721;-79
2021/07/15 08:16:26;;;;;;;;;10.33;10.00;;;;;-149.00;100.00;66333.84;5094864;27;45477;-78
2021/07/15 08:18:51;;;;;;;;;15.67;14.67;;;;;-149.00;100.00;66333.84;5096035;27;45268;-82
2021/07/15 08:21:21;;;;;;;;;13.00;12.67;;;;;-149.00;100.00;66333.84;5098958;27;45457;-79
2021/07/15 08:23:48;;;;;;;;;13.33;12.00;;;;;-149.00;100.00;66333.84;5099154;27;45296;-81
2021/07/15 08:26:14;;;;;;;;;13.67;11.67;;;;;-149.00;100.00;66333.84;5081076;27;45305;-80
2021/07/15 08:28:39;;;;;;;;;11.00;11.00;;;;;-149.00;100.00;66333.84;5099125;27;45155;-80
2021/07/15 08:31:05;;;;;;;;;12.00;12.00;;;;;-149.00;100.00;66333.84;5099604;27;45672;-78
2021/07/15 08:33:30;;;;;;;;;13.00;13.00;;;;;-149.00;100.00;66333.84;5099529;27;45366;-80
2021/07/15 08:35:56;;;;;;;;;12.00;12.00;;;;;-149.00;100.00;66333.84;5100005;27;45243;-79
2021/07/15 08:38:23;;;;;;;;;12.33;10.33;;;;;-149.00;100.00;66333.84;5093375;27;45242;-78
2021/07/15 08:40:49;;;;;;;;;11.00;11.00;;;;;-149.00;100.00;66333.84;5081219;27;47398;-78
2021/07/15 08:43:14;;;;;;;;;9.67;9.33;;;;;-149.00;100.00;66333.84;5098770;27;45273;-78
2021/07/15 08:45:41;;;;;;;;;11.67;11.67;;;;;-149.00;100.00;66333.84;5080494;27;45361;-77
2021/07/15 08:48:08;;;;;;;;;10.00;10.00;;;;;-149.00;100.00;66333.84;5099022;27;45489;-76
2021/07/15 08:50:33;;;;;;;;;11.67;11.67;;;;;-149.00;100.00;66333.84;5098745;27;45299;-76
2021/07/15 08:52:59;;;;;;;;;11.00;11.00;;;;;-149.00;100.00;66333.84;5099763;27;45242;-76
2021/07/15 08:58:15;;;;;;;;;9.67;9.00;;;;;-149.00;100.00;66333.84;5073569;27;45294;-78
2021/07/15 09:00:42;;;;;;;;;10.33;10.33;;;;;-149.00;100.00;66333.84;5084256;27;47860;-78
2021/07/15 09:03:08;;;;;;;;;10.67;10.00;;;;;-149.00;100.00;66333.84;5102573;27;45366;-78
2021/07/15 09:05:34;;;;;;;;;12.00;11.00;;;;;-149.00;100.00;66333.84;5102953;27;45289;-81
2021/07/15 09:08:01;;;;;;;;;12.33;11.33;;;;;-149.00;100.00;66333.84;5083354;27;46411;-77
2021/07/15 09:10:27;;;;;;;;;11.33;10.00;;;;;-149.00;100.00;66333.84;5102896;27;46086;-77
2021/07/15 09:12:52;;;;;;;;;10.67;10.67;;;;;-149.00;100.00;66333.84;5102155;27;45477;-75
2021/07/15 09:15:18;;;;;;;;;10.00;10.00;;;;;-149.00;100.00;66333.84;5102221;27;45398;-78
2021/07/15 09:17:43;;;;;;;;;10.00;10.00;;;;;-149.00;100.00;66333.84;5102998;27;45323;-77
2021/07/15 09:20:21;;;;;;;;;8.67;8.67;;;;;-149.00;100.00;66333.84;5084251;27;48189;-77
2021/07/15 09:23:06;;;;;;;;;12.67;12.67;;;;;-149.00;100.00;66333.84;5102350;27;45483;-79
2021/07/15 09:25:37;;;;;;;;;8.67;8.67;;;;;-149.00;100.00;66333.84;5102840;27;45321;-78
2021/07/15 09:28:09;;;;;;;;;11.00;10.00;;;;;-149.00;100.00;66333.84;5101902;27;45408;-78
2021/07/15 09:30:34;;;;;;;;;12.33;11.00;;;;;-149.00;100.00;66333.84;5101855;27;45217;-76
2021/07/15 09:33:06;;;;;;;;;10.33;9.33;;;;;-149.00;100.00;66333.84;5102474;27;45256;-77
2021/07/15 09:35:41;;;;;;;;;12.00;11.67;;;;;-149.00;100.00;66333.84;5102669;27;45325;-78
2021/07/15 09:38:18;;;;;;;;;11.00;11.00;;;;;-149.00;100.00;66333.84;5092218;27;45337;-77
2021/07/15 09:40:47;;;;;;;;;10.00;8.33;;;;;-149.00;100.00;66333.84;5089996;27;47135;-78
2021/07/15 09:43:20;;;;;;;;;12.33;12.33;;;;;-149.00;100.00;66333.84;5101819;27;45310;-78
2021/07/15 09:45:48;;;;;;;;;10.67;10.67;;;;;-149.00;100.00;66333.84;5093482;27;45265;-78
2021/07/15 09:48:18;;;;;;;;;13.67;13.67;;;;;-149.00;100.00;66333.84;5082917;27;47148;-78
2021/07/15 09:50:44;;;;;;;;;8.67;8.67;;;;;-149.00;100.00;66333.84;5097182;27;46351;-78
2021/07/15 09:53:25;;;;;;;;;11.00;10.00;;;;;-149.00;100.00;66333.84;5101918;27;45636;-78
2021/07/15 09:55:58;;;;;;;;;11.33;10.00;;;;;-149.00;100.00;66333.84;5101889;27;45371;-78
2021/07/15 09:58:23;;;;;;;;;9.33;9.00;;;;;-149.00;100.00;66333.84;5101549;27;45437;-78
2021/07/15 10:00:49;;;;;;;;;11.33;11.33;;;;;-149.00;100.00;66333.84;5083278;27;47015;-79
2021/07/15 10:03:16;;;;;;;;;14.00;14.00;;;;;-149.00;100.00;66333.84;5102136;27;45385;-79
2021/07/15 10:05:53;;;;;;;;;8.00;8.00;;;;;-149.00;100.00;66333.84;5101091;27;45324;-79
2021/07/15 10:08:27;;;;;;;;;12.33;11.67;;;;;-149.00;100.00;66333.84;5082778;27;45444;-78
2021/07/15 10:10:53;;;;;;;;;12.33;11.33;;;;;-149.00;100.00;66333.84;5101921;27;46714;-79
2021/07/15 10:13:21;;;;;;;;;10.67;10.00;;;;;-149.00;100.00;66333.84;5101993;27;45208;-78
2021/07/15 10:15:49;;;;;;;;;12.33;11.67;;;;;-149.00;100.00;66333.84;5101772;27;45300;-78
2021/07/15 10:18:33;;;;;;;;;12.67;11.00;;;;;-149.00;100.00;66333.84;5101819;27;45327;-78
2021/07/15 10:20:58;;;;;;;;;12.33;12.33;;;;;-149.00;100.00;66333.84;5082867;27;48275;-78
2021/07/15 10:23:38;;;;;;;;;12.00;12.00;;;;;-149.00;100.00;66333.84;5100934;27;45364;-79
2021/07/15 10:26:05;;;;;;;;;10.00;9.00;;;;;-149.00;100.00;66333.84;5083071;27;45346;-78
2021/07/15 10:28:31;;;;;;;;;12.00;9.33;;;;;-149.00;100.00;66333.84;5100882;27;45418;-79
2021/07/15 10:30:59;;;;;;;;;11.33;11.33;;;;;-149.00;100.00;66333.84;5100779;27;45408;-79
2021/07/15 10:33:25;;;;;;;;;10.00;10.00;;;;;-149.00;100.00;66333.84;5101552;27;45351;-78
2021/07/15 10:35:51;;;;;;;;;8.33;8.00;;;;;-149.00;100.00;66333.84;5101847;27;45347;-78
2021/07/15 10:38:20;;;;;;;;;11.00;11.00;;;;;-149.00;100.00;66333.84;5101326;27;45444;-78
2021/07/15 10:40:46;;;;;;;;;10.67;10.00;;;;;-149.00;100.00;66333.84;5099844;27;46056;-80
2021/07/15 10:43:12;;;;;;;;;9.00;9.00;;;;;-149.00;100.00;66333.84;5100002;27;45809;-78
2021/07/15 10:45:39;;;;;;;;;11.67;11.33;;;;;-149.00;100.00;66333.84;5101440;27;45394;-78
2021/07/15 10:48:06;;;;;;;;;12.33;11.00;;;;;-149.00;100.00;66333.84;5100471;27;45449;-79
2021/07/15 10:50:31;;;;;;;;;11.33;11.33;;;;;-149.00;100.00;66333.84;5082276;27;47127;-80
2021/07/15 10:52:58;;;;;;;;;14.00;11.67;;;;;-149.00;100.00;66333.84;5101207;27;45344;-78
2021/07/15 10:55:25;;;;;;;;;11.33;11.00;;;;;-149.00;100.00;66333.84;5101688;27;45317;-79
2021/07/15 10:57:51;;;;;;;;;7.33;7.33;;;;;-149.00;100.00;66333.84;5101445;27;45163;-79
2021/07/15 11:00:29;;;;;;;;;12.00;12.00;;;;;-149.00;100.00;66333.84;5100956;27;46336;-79
2021/07/15 11:03:12;;;;;;;;;9.00;9.00;;;;;-149.00;100.00;66333.84;5082682;27;45345;-78